Používaním stránok prevádzkovaných PROFIPILOT, s.r.o. súhlasíte s používaním cookies, ktoré nám pomáhajú zabezpečiť lepšie služby.OK

Briefing

MAPA | METAR | TAF | METEO SITUÁCIA
MAPA | METAR | TAF | METEO SITUÁCIA

Predpoveď na dnes

NOC: Jasno až polooblačno, na východe spočiatku oblačno s doznievaním prehánok a búrok. Najnižšia nočná teplota 20 až 15, v horských dolinách a kotlinách ojedinele okolo 13 st. Slabý vietor. DEŇ: Spočiatku jasno až polooblačno, postupne od západu pribúdanie ďalšej oblačnosti a na viacerých miestach dážď, prehánky, miestami búrky, lokálne aj intenzívne. Na pocit dusno. Najvyššia denná teplota 26 až 31, v Žilinskom kraji, v Popradskej kotline a na Zamagurí okolo 24 st. Teplota na horách vo výške 1500 m okolo 16 st. Slabý vietor, pri búrkach zosilnie. Predpokladané množstvo zrážok: NOC: do 5 mm, pri búrkach ojedinele okolo 10 mm DEŇ: do 10 mm, pri búrkach miestami 15 až 40 mm, ojedinele aj viac Tendencia tlaku vzduchu: mierny pokles

SHMÚ, OMPaV, PZ 23.7.2017 21:15 LSEČ

MAPA | METAR | TAF | METEO SITUÁCIA

TAF - Letisková predpoveď

23.07.2017 - 17:00 UTC (Včera)

TAF LZIB 231700Z 2318/2418 32010KT CAVOK
     BECMG 2320/2322 34006KT SCT045 BKN100
     PROB30 TEMPO 2404/2410 05010KT -SHRA SCT030 FEW040CB
     TEMPO 2410/2418 VRB15KT 4000 TSRA BKN025 SCT030CB=
 TAF LZKZ 231700Z 2318/2418 01010KT 9999 FEW045 SCT080
     PROB40 TEMPO 2318/2322 33015G25KT 5000 TSRA SCT040CB BKN050
     BECMG 2410/2412 09006KT FEW040CB SCT060
     TEMPO 2411/2418 4000 TSRA BKN025 SCT030CB=
 TAF LZTT 231700Z 2318/2418 24010KT 9999 FEW045 BKN070
     PROB40 TEMPO 2318/2320 26015G25KT 5000 TSRA SCT043CB BKN050
     BECMG 2320/2322 28004KT
     TEMPO 2400/2406 2500 BCFG SCT002 SCT070
     TEMPO 2409/2418 11010KT TSRA SCT017 SCT030CB=
 

23.07.2017 - 02:00 UTC (Včera)

TAF AMD LZZI 230335Z 2303/2312 VRB02KT CAVOK
     TEMPO 2303/2305 0600 FG SCT001 SCT090
     BECMG 2305/2307 9999 FEW030 BKN090
     TEMPO 2309/2312 23010KT -TSRA FEW035CB BKN060=
 
MAPA | METAR | TAF | METEO SITUÁCIA

METAR - Letisková meteo správa

Letisková meteorologická správa METAR

Meteorologické informácie z ďalších profesionálnych meteorologických staníc SHMÚ zobrazené v tvare zodpovedajúcom pravidlám kódovania správ METAR sú uvedené v položke „METSYN Informácie o správe METAR

24.07.2017 - 00:30 UTC

METAR LZIB 240030Z 01004KT CAVOK 20/17 Q1013=
 METAR LZKZ 240030Z VRB01KT 9999 R01/1300U BCFG FEW001 17/17 Q1013=
 METAR LZPP 240030Z AUTO 01004KT 9999 BKN180/// OVC190/// 18/16
 Q1014=
 METAR LZSL 240030Z 00000KT CAVOK 15/13 Q1014=
 METAR LZTT 240030Z 29006KT 9999 FEW003 BKN005 14/13 Q1016=
 METAR LZZI 240030Z VRB02KT 9999 SCT008 15/14 Q1015=
 

24.07.2017 - 00:00 UTC

METAR LZIB 240000Z 04006KT CAVOK 21/17 Q1014=
 METAR LZKZ 240000Z VRB02KT 9999 BCFG NSC 18/17 Q1013=
 METAR LZPP 240000Z AUTO 07003KT 9999 FEW110/// OVC180/// 18/15
 Q1014=
 METAR LZSL 240000Z 00000KT CAVOK 15/13 Q1015=
 METAR LZTT 240000Z 28007KT 9999 FEW003 SCT005 15/14 Q1016=
 METAR LZZI 240000Z 11003KT 9999 FEW003 15/14 Q1015=
 
Údaje nie sú momentálne k dispozícii
načítavam...